sensor_id;sensor_type;location;lat;lon;timestamp;temperature;humidity
3256;DHT22;1640;48.504;9.224;2022-08-01T00:02:28;21.60;70.30
3256;DHT22;1640;48.504;9.224;2022-08-01T00:04:57;21.50;71.30
3256;DHT22;1640;48.504;9.224;2022-08-01T00:07:26;21.50;71.50
3256;DHT22;1640;48.504;9.224;2022-08-01T00:09:55;21.40;71.30
3256;DHT22;1640;48.504;9.224;2022-08-01T00:12:22;21.30;71.30
3256;DHT22;1640;48.504;9.224;2022-08-01T00:14:50;21.20;72.20
3256;DHT22;1640;48.504;9.224;2022-08-01T00:17:17;21.10;71.80
3256;DHT22;1640;48.504;9.224;2022-08-01T00:19:45;21.10;73.80
3256;DHT22;1640;48.504;9.224;2022-08-01T00:22:12;21.00;73.80
3256;DHT22;1640;48.504;9.224;2022-08-01T00:24:40;20.90;73.50
3256;DHT22;1640;48.504;9.224;2022-08-01T00:27:09;20.90;73.90
3256;DHT22;1640;48.504;9.224;2022-08-01T00:29:36;20.90;73.40
3256;DHT22;1640;48.504;9.224;2022-08-01T00:32:04;20.90;73.40
3256;DHT22;1640;48.504;9.224;2022-08-01T00:34:32;20.90;73.50
3256;DHT22;1640;48.504;9.224;2022-08-01T00:37:00;20.80;73.60
3256;DHT22;1640;48.504;9.224;2022-08-01T00:39:27;20.80;73.90
3256;DHT22;1640;48.504;9.224;2022-08-01T00:41:55;20.80;73.50
3256;DHT22;1640;48.504;9.224;2022-08-01T00:44:24;20.80;74.10
3256;DHT22;1640;48.504;9.224;2022-08-01T00:46:51;20.70;74.20
3256;DHT22;1640;48.504;9.224;2022-08-01T00:49:19;20.70;74.50
3256;DHT22;1640;48.504;9.224;2022-08-01T00:51:47;20.60;74.50
3256;DHT22;1640;48.504;9.224;2022-08-01T00:54:15;20.50;74.60
3256;DHT22;1640;48.504;9.224;2022-08-01T00:56:43;20.50;74.50
3256;DHT22;1640;48.504;9.224;2022-08-01T00:59:11;20.40;74.80
3256;DHT22;1640;48.504;9.224;2022-08-01T01:01:40;20.30;74.90
3256;DHT22;1640;48.504;9.224;2022-08-01T01:04:08;20.30;74.80
3256;DHT22;1640;48.504;9.224;2022-08-01T01:06:44;20.20;74.50
3256;DHT22;1640;48.504;9.224;2022-08-01T01:09:21;20.10;74.60
3256;DHT22;1640;48.504;9.224;2022-08-01T01:11:58;20.00;74.20
3256;DHT22;1640;48.504;9.224;2022-08-01T01:14:33;19.90;73.90
3256;DHT22;1640;48.504;9.224;2022-08-01T01:17:06;19.80;73.20
3256;DHT22;1640;48.504;9.224;2022-08-01T01:19:39;19.80;72.60
3256;DHT22;1640;48.504;9.224;2022-08-01T01:22:30;19.70;72.20
3256;DHT22;1640;48.504;9.224;2022-08-01T01:25:09;19.60;72.20
3256;DHT22;1640;48.504;9.224;2022-08-01T01:27:45;19.50;70.80
3256;DHT22;1640;48.504;9.224;2022-08-01T01:30:18;19.40;70.00
3256;DHT22;1640;48.504;9.224;2022-08-01T01:32:48;19.30;70.20
3256;DHT22;1640;48.504;9.224;2022-08-01T01:35:21;19.30;69.50
3256;DHT22;1640;48.504;9.224;2022-08-01T01:37:53;19.30;69.80
3256;DHT22;1640;48.504;9.224;2022-08-01T01:40:22;19.30;69.50
3256;DHT22;1640;48.504;9.224;2022-08-01T01:42:51;19.30;69.90
3256;DHT22;1640;48.504;9.224;2022-08-01T01:45:21;19.30;69.80
3256;DHT22;1640;48.504;9.224;2022-08-01T01:47:51;19.30;69.60
3256;DHT22;1640;48.504;9.224;2022-08-01T01:50:21;19.20;69.50
3256;DHT22;1640;48.504;9.224;2022-08-01T01:52:50;19.20;69.00
3256;DHT22;1640;48.504;9.224;2022-08-01T01:55:19;19.20;68.20
3256;DHT22;1640;48.504;9.224;2022-08-01T01:57:50;19.10;68.50
3256;DHT22;1640;48.504;9.224;2022-08-01T02:00:20;19.10;68.30
3256;DHT22;1640;48.504;9.224;2022-08-01T02:02:49;19.00;67.90
3256;DHT22;1640;48.504;9.224;2022-08-01T02:05:18;19.00;68.00
3256;DHT22;1640;48.504;9.224;2022-08-01T02:07:45;18.90;67.80
3256;DHT22;1640;48.504;9.224;2022-08-01T02:10:16;18.90;67.20
3256;DHT22;1640;48.504;9.224;2022-08-01T02:12:45;18.90;67.60
3256;DHT22;1640;48.504;9.224;2022-08-01T02:15:17;18.80;67.00
3256;DHT22;1640;48.504;9.224;2022-08-01T02:17:48;18.80;66.00
3256;DHT22;1640;48.504;9.224;2022-08-01T02:20:16;18.70;67.00
3256;DHT22;1640;48.504;9.224;2022-08-01T02:22:47;18.70;65.50
3256;DHT22;1640;48.504;9.224;2022-08-01T02:25:21;18.70;65.50
3256;DHT22;1640;48.504;9.224;2022-08-01T02:27:54;18.60;64.90
3256;DHT22;1640;48.504;9.224;2022-08-01T02:30:24;18.60;65.30
3256;DHT22;1640;48.504;9.224;2022-08-01T02:33:00;18.60;64.90
3256;DHT22;1640;48.504;9.224;2022-08-01T02:35:32;18.50;65.50
3256;DHT22;1640;48.504;9.224;2022-08-01T02:38:01;18.60;66.00
3256;DHT22;1640;48.504;9.224;2022-08-01T02:40:31;18.60;66.00
3256;DHT22;1640;48.504;9.224;2022-08-01T02:43:02;18.70;66.30
3256;DHT22;1640;48.504;9.224;2022-08-01T02:45:31;18.70;67.50
3256;DHT22;1640;48.504;9.224;2022-08-01T02:48:07;18.80;67.50
3256;DHT22;1640;48.504;9.224;2022-08-01T02:50:38;18.80;67.00
3256;DHT22;1640;48.504;9.224;2022-08-01T02:53:07;18.80;67.30
3256;DHT22;1640;48.504;9.224;2022-08-01T02:55:37;18.90;66.90
3256;DHT22;1640;48.504;9.224;2022-08-01T02:58:06;18.80;67.80
3256;DHT22;1640;48.504;9.224;2022-08-01T03:00:34;18.90;67.50
3256;DHT22;1640;48.504;9.224;2022-08-01T03:03:07;18.80;67.90
3256;DHT22;1640;48.504;9.224;2022-08-01T03:05:35;18.80;67.20
3256;DHT22;1640;48.504;9.224;2022-08-01T03:08:04;18.80;67.20
3256;DHT22;1640;48.504;9.224;2022-08-01T03:10:33;18.70;66.90
3256;DHT22;1640;48.504;9.224;2022-08-01T03:13:03;18.70;68.50
3256;DHT22;1640;48.504;9.224;2022-08-01T03:15:35;18.70;67.80
3256;DHT22;1640;48.504;9.224;2022-08-01T03:18:06;18.80;67.80
3256;DHT22;1640;48.504;9.224;2022-08-01T03:20:35;18.80;67.20
3256;DHT22;1640;48.504;9.224;2022-08-01T03:23:05;18.80;68.00
3256;DHT22;1640;48.504;9.224;2022-08-01T03:25:35;18.80;67.90
3256;DHT22;1640;48.504;9.224;2022-08-01T03:28:06;18.80;67.30
3256;DHT22;1640;48.504;9.224;2022-08-01T03:30:35;18.80;68.50
3256;DHT22;1640;48.504;9.224;2022-08-01T03:33:06;18.80;68.80
3256;DHT22;1640;48.504;9.224;2022-08-01T03:35:36;18.70;68.50
3256;DHT22;1640;48.504;9.224;2022-08-01T03:38:06;18.60;67.50
3256;DHT22;1640;48.504;9.224;2022-08-01T03:40:40;18.50;66.60
3256;DHT22;1640;48.504;9.224;2022-08-01T03:43:13;18.40;65.60
3256;DHT22;1640;48.504;9.224;2022-08-01T03:45:48;18.20;64.90
3256;DHT22;1640;48.504;9.224;2022-08-01T03:48:19;18.20;64.60
3256;DHT22;1640;48.504;9.224;2022-08-01T03:50:51;18.20;63.30
3256;DHT22;1640;48.504;9.224;2022-08-01T03:53:23;18.20;63.40
3256;DHT22;1640;48.504;9.224;2022-08-01T03:55:53;18.10;62.70
3256;DHT22;1640;48.504;9.224;2022-08-01T03:58:21;18.10;61.60
3256;DHT22;1640;48.504;9.224;2022-08-01T04:00:49;18.00;61.40
3256;DHT22;1640;48.504;9.224;2022-08-01T04:03:18;18.00;60.90
3256;DHT22;1640;48.504;9.224;2022-08-01T04:05:46;18.00;61.00
3256;DHT22;1640;48.504;9.224;2022-08-01T04:08:14;17.90;60.60
3256;DHT22;1640;48.504;9.224;2022-08-01T04:10:41;17.90;60.10
3256;DHT22;1640;48.504;9.224;2022-08-01T04:13:09;17.80;59.50
3256;DHT22;1640;48.504;9.224;2022-08-01T04:15:36;17.80;56.70
3256;DHT22;1640;48.504;9.224;2022-08-01T04:18:05;17.80;57.70
3256;DHT22;1640;48.504;9.224;2022-08-01T04:20:34;17.80;58.60
3256;DHT22;1640;48.504;9.224;2022-08-01T04:23:02;17.80;58.10
3256;DHT22;1640;48.504;9.224;2022-08-01T04:25:37;17.80;57.40
3256;DHT22;1640;48.504;9.224;2022-08-01T04:28:06;17.80;57.30
3256;DHT22;1640;48.504;9.224;2022-08-01T04:30:37;17.80;57.70
3256;DHT22;1640;48.504;9.224;2022-08-01T04:33:08;17.80;57.00
3256;DHT22;1640;48.504;9.224;2022-08-01T04:35:40;17.80;56.90
3256;DHT22;1640;48.504;9.224;2022-08-01T04:38:08;17.90;56.60
3256;DHT22;1640;48.504;9.224;2022-08-01T04:40:39;17.90;57.10
3256;DHT22;1640;48.504;9.224;2022-08-01T04:43:07;17.90;57.40
3256;DHT22;1640;48.504;9.224;2022-08-01T04:45:35;17.90;56.50
3256;DHT22;1640;48.504;9.224;2022-08-01T04:48:05;18.00;57.70
3256;DHT22;1640;48.504;9.224;2022-08-01T04:50:35;18.00;57.30
3256;DHT22;1640;48.504;9.224;2022-08-01T04:53:04;18.00;56.90
3256;DHT22;1640;48.504;9.224;2022-08-01T04:55:31;18.00;58.00
3256;DHT22;1640;48.504;9.224;2022-08-01T04:57:59;18.00;57.80
3256;DHT22;1640;48.504;9.224;2022-08-01T05:00:27;18.10;57.70
3256;DHT22;1640;48.504;9.224;2022-08-01T05:02:54;18.10;57.40
3256;DHT22;1640;48.504;9.224;2022-08-01T05:05:22;18.10;57.00
3256;DHT22;1640;48.504;9.224;2022-08-01T05:07:52;18.10;58.50
3256;DHT22;1640;48.504;9.224;2022-08-01T05:10:21;18.20;58.80
3256;DHT22;1640;48.504;9.224;2022-08-01T05:12:48;18.20;59.00
3256;DHT22;1640;48.504;9.224;2022-08-01T05:15:16;18.30;58.40
3256;DHT22;1640;48.504;9.224;2022-08-01T05:17:44;18.30;59.30
3256;DHT22;1640;48.504;9.224;2022-08-01T05:20:12;18.50;60.00
3256;DHT22;1640;48.504;9.224;2022-08-01T05:22:40;18.60;62.90
3256;DHT22;1640;48.504;9.224;2022-08-01T05:25:08;18.70;61.90
3256;DHT22;1640;48.504;9.224;2022-08-01T05:27:37;18.90;64.30
3256;DHT22;1640;48.504;9.224;2022-08-01T05:30:07;19.10;64.00
3256;DHT22;1640;48.504;9.224;2022-08-01T05:32:35;19.20;66.20
3256;DHT22;1640;48.504;9.224;2022-08-01T05:35:03;19.40;66.70
3256;DHT22;1640;48.504;9.224;2022-08-01T05:37:31;19.50;67.20
3256;DHT22;1640;48.504;9.224;2022-08-01T05:39:59;19.70;68.20
3256;DHT22;1640;48.504;9.224;2022-08-01T05:42:26;19.70;68.30
3256;DHT22;1640;48.504;9.224;2022-08-01T05:44:55;19.80;68.50
3256;DHT22;1640;48.504;9.224;2022-08-01T05:47:23;19.80;69.00
3256;DHT22;1640;48.504;9.224;2022-08-01T05:49:50;19.70;68.60
3256;DHT22;1640;48.504;9.224;2022-08-01T05:52:18;19.70;68.20
3256;DHT22;1640;48.504;9.224;2022-08-01T05:54:46;19.70;67.90
3256;DHT22;1640;48.504;9.224;2022-08-01T05:57:13;19.70;67.20
3256;DHT22;1640;48.504;9.224;2022-08-01T05:59:41;19.70;67.30
3256;DHT22;1640;48.504;9.224;2022-08-01T06:02:10;19.80;66.70
3256;DHT22;1640;48.504;9.224;2022-08-01T06:04:37;19.70;66.00
3256;DHT22;1640;48.504;9.224;2022-08-01T06:07:05;19.80;65.70
3256;DHT22;1640;48.504;9.224;2022-08-01T06:09:32;19.90;65.60
3256;DHT22;1640;48.504;9.224;2022-08-01T06:12:00;20.00;66.30
3256;DHT22;1640;48.504;9.224;2022-08-01T06:14:27;20.20;66.50
3256;DHT22;1640;48.504;9.224;2022-08-01T06:16:55;20.20;66.20
3256;DHT22;1640;48.504;9.224;2022-08-01T06:19:24;20.20;65.90
3256;DHT22;1640;48.504;9.224;2022-08-01T06:21:52;20.10;66.70
3256;DHT22;1640;48.504;9.224;2022-08-01T06:24:20;20.30;65.70
3256;DHT22;1640;48.504;9.224;2022-08-01T06:26:49;20.50;67.30
3256;DHT22;1640;48.504;9.224;2022-08-01T06:29:16;20.60;68.30
3256;DHT22;1640;48.504;9.224;2022-08-01T06:31:44;20.80;68.80
3256;DHT22;1640;48.504;9.224;2022-08-01T06:34:11;20.90;69.20
3256;DHT22;1640;48.504;9.224;2022-08-01T06:36:42;21.10;69.00
3256;DHT22;1640;48.504;9.224;2022-08-01T06:39:10;21.30;69.60
3256;DHT22;1640;48.504;9.224;2022-08-01T06:41:37;21.50;70.00
3256;DHT22;1640;48.504;9.224;2022-08-01T06:44:07;21.60;70.50
3256;DHT22;1640;48.504;9.224;2022-08-01T06:46:35;21.80;70.60
3256;DHT22;1640;48.504;9.224;2022-08-01T06:49:02;22.00;70.80
3256;DHT22;1640;48.504;9.224;2022-08-01T06:51:30;22.30;70.80
3256;DHT22;1640;48.504;9.224;2022-08-01T06:53:59;22.40;70.80
3256;DHT22;1640;48.504;9.224;2022-08-01T06:56:26;22.60;70.60
3256;DHT22;1640;48.504;9.224;2022-08-01T06:58:54;22.80;70.30
3256;DHT22;1640;48.504;9.224;2022-08-01T07:01:26;23.00;70.30
3256;DHT22;1640;48.504;9.224;2022-08-01T07:03:54;23.00;70.50
3256;DHT22;1640;48.504;9.224;2022-08-01T07:06:23;23.10;70.20
3256;DHT22;1640;48.504;9.224;2022-08-01T07:08:51;23.00;69.90
3256;DHT22;1640;48.504;9.224;2022-08-01T07:11:20;22.80;70.20
3256;DHT22;1640;48.504;9.224;2022-08-01T07:13:48;22.50;70.60
3256;DHT22;1640;48.504;9.224;2022-08-01T07:16:16;22.20;71.10
3256;DHT22;1640;48.504;9.224;2022-08-01T07:18:44;22.10;70.90
3256;DHT22;1640;48.504;9.224;2022-08-01T07:21:12;22.00;70.80
3256;DHT22;1640;48.504;9.224;2022-08-01T07:23:39;21.90;70.80
3256;DHT22;1640;48.504;9.224;2022-08-01T07:26:07;22.00;70.50
3256;DHT22;1640;48.504;9.224;2022-08-01T07:28:36;22.10;70.80
3256;DHT22;1640;48.504;9.224;2022-08-01T07:31:04;22.20;70.80
3256;DHT22;1640;48.504;9.224;2022-08-01T07:33:31;22.30;70.60
3256;DHT22;1640;48.504;9.224;2022-08-01T07:35:59;22.30;70.60
3256;DHT22;1640;48.504;9.224;2022-08-01T07:38:26;22.30;70.80
3256;DHT22;1640;48.504;9.224;2022-08-01T07:40:54;22.50;70.60
3256;DHT22;1640;48.504;9.224;2022-08-01T07:43:21;22.60;70.80
3256;DHT22;1640;48.504;9.224;2022-08-01T07:45:50;22.80;70.60
3256;DHT22;1640;48.504;9.224;2022-08-01T07:48:18;22.90;70.60
3256;DHT22;1640;48.504;9.224;2022-08-01T07:50:47;23.00;70.60
3256;DHT22;1640;48.504;9.224;2022-08-01T07:53:14;23.00;70.30
3256;DHT22;1640;48.504;9.224;2022-08-01T07:55:42;23.00;70.20
3256;DHT22;1640;48.504;9.224;2022-08-01T07:58:10;23.10;70.50
3256;DHT22;1640;48.504;9.224;2022-08-01T08:00:38;23.20;70.00
3256;DHT22;1640;48.504;9.224;2022-08-01T08:03:07;23.30;70.00
3256;DHT22;1640;48.504;9.224;2022-08-01T08:05:34;23.40;69.90
3256;DHT22;1640;48.504;9.224;2022-08-01T08:08:04;23.40;70.00
3256;DHT22;1640;48.504;9.224;2022-08-01T08:10:32;23.40;69.90
3256;DHT22;1640;48.504;9.224;2022-08-01T08:13:00;23.60;70.50
3256;DHT22;1640;48.504;9.224;2022-08-01T08:15:28;23.70;69.60
3256;DHT22;1640;48.504;9.224;2022-08-01T08:17:55;23.70;69.50
3256;DHT22;1640;48.504;9.224;2022-08-01T08:20:24;23.80;69.60
3256;DHT22;1640;48.504;9.224;2022-08-01T08:22:53;23.80;69.30
3256;DHT22;1640;48.504;9.224;2022-08-01T08:25:21;23.90;69.00
3256;DHT22;1640;48.504;9.224;2022-08-01T08:27:49;23.90;68.80
3256;DHT22;1640;48.504;9.224;2022-08-01T08:30:17;23.90;67.80
3256;DHT22;1640;48.504;9.224;2022-08-01T08:32:44;24.10;67.80
3256;DHT22;1640;48.504;9.224;2022-08-01T08:35:12;24.20;67.90
3256;DHT22;1640;48.504;9.224;2022-08-01T08:37:41;24.30;67.60
3256;DHT22;1640;48.504;9.224;2022-08-01T08:40:10;24.30;66.90
3256;DHT22;1640;48.504;9.224;2022-08-01T08:42:39;24.30;67.50
3256;DHT22;1640;48.504;9.224;2022-08-01T08:45:09;24.30;67.50
3256;DHT22;1640;48.504;9.224;2022-08-01T08:47:37;24.40;67.20
3256;DHT22;1640;48.504;9.224;2022-08-01T08:50:06;24.40;66.90
3256;DHT22;1640;48.504;9.224;2022-08-01T08:52:35;24.50;67.30
3256;DHT22;1640;48.504;9.224;2022-08-01T08:55:08;24.60;67.50
3256;DHT22;1640;48.504;9.224;2022-08-01T08:57:39;24.70;66.60
3256;DHT22;1640;48.504;9.224;2022-08-01T09:00:08;24.80;66.20
3256;DHT22;1640;48.504;9.224;2022-08-01T09:02:41;24.80;66.20
3256;DHT22;1640;48.504;9.224;2022-08-01T09:05:09;24.90;66.20
3256;DHT22;1640;48.504;9.224;2022-08-01T09:07:37;25.00;66.20
3256;DHT22;1640;48.504;9.224;2022-08-01T09:10:08;24.90;66.20
3256;DHT22;1640;48.504;9.224;2022-08-01T09:12:37;24.90;66.70
3256;DHT22;1640;48.504;9.224;2022-08-01T09:15:05;25.10;66.90
3256;DHT22;1640;48.504;9.224;2022-08-01T09:17:39;25.30;65.70
3256;DHT22;1640;48.504;9.224;2022-08-01T09:20:08;25.60;64.60
3256;DHT22;1640;48.504;9.224;2022-08-01T09:22:49;25.70;64.00
3256;DHT22;1640;48.504;9.224;2022-08-01T09:25:18;25.90;63.40
3256;DHT22;1640;48.504;9.224;2022-08-01T09:27:46;26.00;63.20
3256;DHT22;1640;48.504;9.224;2022-08-01T09:30:16;26.20;62.00
3256;DHT22;1640;48.504;9.224;2022-08-01T09:32:53;26.50;63.00
3256;DHT22;1640;48.504;9.224;2022-08-01T09:35:26;26.90;61.90
3256;DHT22;1640;48.504;9.224;2022-08-01T09:38:12;27.00;60.10
3256;DHT22;1640;48.504;9.224;2022-08-01T09:40:46;26.80;62.20
3256;DHT22;1640;48.504;9.224;2022-08-01T09:43:14;26.80;61.60
3256;DHT22;1640;48.504;9.224;2022-08-01T09:45:41;26.70;62.20
3256;DHT22;1640;48.504;9.224;2022-08-01T09:48:10;26.70;62.40
3256;DHT22;1640;48.504;9.224;2022-08-01T09:50:39;26.80;62.20
3256;DHT22;1640;48.504;9.224;2022-08-01T09:53:08;26.50;62.40
3256;DHT22;1640;48.504;9.224;2022-08-01T09:55:36;26.40;62.90
3256;DHT22;1640;48.504;9.224;2022-08-01T09:58:06;26.70;62.70
3256;DHT22;1640;48.504;9.224;2022-08-01T10:00:34;27.00;61.40
3256;DHT22;1640;48.504;9.224;2022-08-01T10:03:19;27.30;60.40
3256;DHT22;1640;48.504;9.224;2022-08-01T10:05:46;27.40;59.50
3256;DHT22;1640;48.504;9.224;2022-08-01T10:08:14;27.80;59.20
3256;DHT22;1640;48.504;9.224;2022-08-01T10:10:43;28.00;57.70
3256;DHT22;1640;48.504;9.224;2022-08-01T10:13:32;28.00;58.20
3256;DHT22;1640;48.504;9.224;2022-08-01T10:16:00;27.90;58.20
3256;DHT22;1640;48.504;9.224;2022-08-01T10:18:29;28.10;58.00
3256;DHT22;1640;48.504;9.224;2022-08-01T10:20:58;28.40;57.70
3256;DHT22;1640;48.504;9.224;2022-08-01T10:23:27;28.90;54.70
3256;DHT22;1640;48.504;9.224;2022-08-01T10:25:58;29.20;54.80
3256;DHT22;1640;48.504;9.224;2022-08-01T10:28:26;29.20;52.80
3256;DHT22;1640;48.504;9.224;2022-08-01T10:30:59;29.00;53.50
3256;DHT22;1640;48.504;9.224;2022-08-01T10:33:27;28.70;53.70
3256;DHT22;1640;48.504;9.224;2022-08-01T10:35:57;28.80;53.90
3256;DHT22;1640;48.504;9.224;2022-08-01T10:38:25;28.70;53.70
3256;DHT22;1640;48.504;9.224;2022-08-01T10:40:55;28.50;55.90
3256;DHT22;1640;48.504;9.224;2022-08-01T10:43:23;28.20;57.40
3256;DHT22;1640;48.504;9.224;2022-08-01T10:45:51;27.90;58.80
3256;DHT22;1640;48.504;9.224;2022-08-01T10:48:24;27.80;57.50
3256;DHT22;1640;48.504;9.224;2022-08-01T10:50:57;27.60;59.00
3256;DHT22;1640;48.504;9.224;2022-08-01T10:53:26;27.50;59.20
3256;DHT22;1640;48.504;9.224;2022-08-01T10:55:59;27.30;60.00
3256;DHT22;1640;48.504;9.224;2022-08-01T10:58:29;27.20;59.90
3256;DHT22;1640;48.504;9.224;2022-08-01T11:01:21;27.00;60.30
3256;DHT22;1640;48.504;9.224;2022-08-01T11:04:05;27.20;61.40
3256;DHT22;1640;48.504;9.224;2022-08-01T11:06:48;27.50;60.40
3256;DHT22;1640;48.504;9.224;2022-08-01T11:09:25;27.50;59.60
3256;DHT22;1640;48.504;9.224;2022-08-01T11:12:02;27.80;58.40
3256;DHT22;1640;48.504;9.224;2022-08-01T11:14:32;27.90;57.50
3256;DHT22;1640;48.504;9.224;2022-08-01T11:17:30;27.80;58.00
3256;DHT22;1640;48.504;9.224;2022-08-01T11:20:07;27.60;58.50
3256;DHT22;1640;48.504;9.224;2022-08-01T11:26:10;27.70;58.20
3256;DHT22;1640;48.504;9.224;2022-08-01T11:28:38;27.80;58.00
3256;DHT22;1640;48.504;9.224;2022-08-01T11:31:29;27.90;57.70
3256;DHT22;1640;48.504;9.224;2022-08-01T11:33:57;28.20;57.40
3256;DHT22;1640;48.504;9.224;2022-08-01T11:36:26;28.30;55.80
3256;DHT22;1640;48.504;9.224;2022-08-01T11:39:13;28.40;55.50
3256;DHT22;1640;48.504;9.224;2022-08-01T11:41:42;28.60;55.50
3256;DHT22;1640;48.504;9.224;2022-08-01T11:44:13;28.60;55.00
3256;DHT22;1640;48.504;9.224;2022-08-01T11:47:05;28.70;54.80
3256;DHT22;1640;48.504;9.224;2022-08-01T11:49:46;28.60;54.80
3256;DHT22;1640;48.504;9.224;2022-08-01T11:52:18;28.60;55.60
3256;DHT22;1640;48.504;9.224;2022-08-01T11:54:47;28.70;55.60
3256;DHT22;1640;48.504;9.224;2022-08-01T11:57:19;28.80;56.10
3256;DHT22;1640;48.504;9.224;2022-08-01T11:59:48;28.90;54.80
3256;DHT22;1640;48.504;9.224;2022-08-01T12:02:18;28.80;54.80
3256;DHT22;1640;48.504;9.224;2022-08-01T12:04:50;28.80;55.60
3256;DHT22;1640;48.504;9.224;2022-08-01T12:07:20;28.70;54.20
3256;DHT22;1640;48.504;9.224;2022-08-01T12:09:51;28.60;55.00
3256;DHT22;1640;48.504;9.224;2022-08-01T12:12:23;28.20;56.20
3256;DHT22;1640;48.504;9.224;2022-08-01T12:14:53;27.80;57.10
3256;DHT22;1640;48.504;9.224;2022-08-01T12:17:43;27.60;58.60
3256;DHT22;1640;48.504;9.224;2022-08-01T12:20:13;27.50;60.00
3256;DHT22;1640;48.504;9.224;2022-08-01T12:22:43;27.50;60.10
3256;DHT22;1640;48.504;9.224;2022-08-01T12:25:12;27.60;60.70
3256;DHT22;1640;48.504;9.224;2022-08-01T12:27:41;27.50;60.60
3256;DHT22;1640;48.504;9.224;2022-08-01T12:30:11;27.40;61.00
3256;DHT22;1640;48.504;9.224;2022-08-01T12:32:40;27.60;61.00
3256;DHT22;1640;48.504;9.224;2022-08-01T12:35:09;27.60;60.10
3256;DHT22;1640;48.504;9.224;2022-08-01T12:37:37;27.80;60.70
3256;DHT22;1640;48.504;9.224;2022-08-01T12:40:15;27.90;60.00
3256;DHT22;1640;48.504;9.224;2022-08-01T12:42:44;28.20;60.90
3256;DHT22;1640;48.504;9.224;2022-08-01T12:45:13;28.40;58.80
3256;DHT22;1640;48.504;9.224;2022-08-01T12:47:42;28.40;60.00
3256;DHT22;1640;48.504;9.224;2022-08-01T12:50:12;28.30;57.00
3256;DHT22;1640;48.504;9.224;2022-08-01T12:52:40;28.20;58.10
3256;DHT22;1640;48.504;9.224;2022-08-01T12:55:13;28.20;59.20
3256;DHT22;1640;48.504;9.224;2022-08-01T12:57:43;28.30;57.10
3256;DHT22;1640;48.504;9.224;2022-08-01T13:00:15;28.20;58.90
3256;DHT22;1640;48.504;9.224;2022-08-01T13:02:44;28.40;58.00
3256;DHT22;1640;48.504;9.224;2022-08-01T13:05:12;28.50;58.10
3256;DHT22;1640;48.504;9.224;2022-08-01T13:07:43;28.50;57.50
3256;DHT22;1640;48.504;9.224;2022-08-01T13:10:11;28.50;57.40
3256;DHT22;1640;48.504;9.224;2022-08-01T13:12:49;28.40;59.20
3256;DHT22;1640;48.504;9.224;2022-08-01T13:15:22;28.40;57.10
3256;DHT22;1640;48.504;9.224;2022-08-01T13:17:50;28.50;56.90
3256;DHT22;1640;48.504;9.224;2022-08-01T13:20:30;28.50;56.10
3256;DHT22;1640;48.504;9.224;2022-08-01T13:23:12;28.70;56.50
3256;DHT22;1640;48.504;9.224;2022-08-01T13:25:50;29.00;55.80
3256;DHT22;1640;48.504;9.224;2022-08-01T13:28:22;29.20;55.50
3256;DHT22;1640;48.504;9.224;2022-08-01T13:30:54;29.40;56.20
3256;DHT22;1640;48.504;9.224;2022-08-01T13:33:22;29.60;53.90
3256;DHT22;1640;48.504;9.224;2022-08-01T13:35:51;29.70;50.20
3256;DHT22;1640;48.504;9.224;2022-08-01T13:38:20;29.70;52.00
3256;DHT22;1640;48.504;9.224;2022-08-01T13:41:09;29.80;51.60
3256;DHT22;1640;48.504;9.224;2022-08-01T13:43:38;29.60;49.80
3256;DHT22;1640;48.504;9.224;2022-08-01T13:46:06;29.40;51.40
3256;DHT22;1640;48.504;9.224;2022-08-01T13:48:34;29.50;50.90
3256;DHT22;1640;48.504;9.224;2022-08-01T13:51:02;29.90;51.30
3256;DHT22;1640;48.504;9.224;2022-08-01T13:53:30;30.10;49.50
3256;DHT22;1640;48.504;9.224;2022-08-01T13:55:58;30.20;50.20
3256;DHT22;1640;48.504;9.224;2022-08-01T13:58:25;30.30;51.60
3256;DHT22;1640;48.504;9.224;2022-08-01T14:00:55;30.30;51.60
3256;DHT22;1640;48.504;9.224;2022-08-01T14:03:23;30.20;51.20
3256;DHT22;1640;48.504;9.224;2022-08-01T14:05:50;30.20;50.20
3256;DHT22;1640;48.504;9.224;2022-08-01T14:08:18;30.00;51.00
3256;DHT22;1640;48.504;9.224;2022-08-01T14:10:46;30.10;51.00
3256;DHT22;1640;48.504;9.224;2022-08-01T14:13:13;29.80;49.90
3256;DHT22;1640;48.504;9.224;2022-08-01T14:15:41;29.60;51.20
3256;DHT22;1640;48.504;9.224;2022-08-01T14:18:10;29.80;51.00
3256;DHT22;1640;48.504;9.224;2022-08-01T14:20:38;29.90;50.50
3256;DHT22;1640;48.504;9.224;2022-08-01T14:23:06;30.20;49.80
3256;DHT22;1640;48.504;9.224;2022-08-01T14:25:33;30.20;48.90
3256;DHT22;1640;48.504;9.224;2022-08-01T14:28:01;30.20;49.10
3256;DHT22;1640;48.504;9.224;2022-08-01T14:30:29;30.30;48.70
3256;DHT22;1640;48.504;9.224;2022-08-01T14:32:57;30.00;50.20
3256;DHT22;1640;48.504;9.224;2022-08-01T14:35:26;29.90;49.80
3256;DHT22;1640;48.504;9.224;2022-08-01T14:37:53;29.60;50.40
3256;DHT22;1640;48.504;9.224;2022-08-01T14:40:21;29.40;51.60
3256;DHT22;1640;48.504;9.224;2022-08-01T14:42:49;29.20;51.40
3256;DHT22;1640;48.504;9.224;2022-08-01T14:45:16;29.00;52.70
3256;DHT22;1640;48.504;9.224;2022-08-01T14:47:44;28.70;53.70
3256;DHT22;1640;48.504;9.224;2022-08-01T14:50:14;28.60;54.20
3256;DHT22;1640;48.504;9.224;2022-08-01T14:52:44;28.40;54.40
3256;DHT22;1640;48.504;9.224;2022-08-01T14:55:12;28.30;54.80
3256;DHT22;1640;48.504;9.224;2022-08-01T14:57:40;28.20;55.20
3256;DHT22;1640;48.504;9.224;2022-08-01T15:00:09;28.00;55.60
3256;DHT22;1640;48.504;9.224;2022-08-01T15:02:38;28.00;57.80
3256;DHT22;1640;48.504;9.224;2022-08-01T15:05:06;27.80;58.40
3256;DHT22;1640;48.504;9.224;2022-08-01T15:07:35;27.60;61.10
3256;DHT22;1640;48.504;9.224;2022-08-01T15:10:05;27.20;67.60
3256;DHT22;1640;48.504;9.224;2022-08-01T15:12:33;26.30;69.80
3256;DHT22;1640;48.504;9.224;2022-08-01T15:15:01;25.30;60.00
3256;DHT22;1640;48.504;9.224;2022-08-01T15:17:30;25.30;40.60
3256;DHT22;1640;48.504;9.224;2022-08-01T15:19:59;25.70;40.30
3256;DHT22;1640;48.504;9.224;2022-08-01T15:22:28;26.30;46.00
3256;DHT22;1640;48.504;9.224;2022-08-01T15:24:57;26.90;49.40
3256;DHT22;1640;48.504;9.224;2022-08-01T15:27:27;27.80;56.70
3256;DHT22;1640;48.504;9.224;2022-08-01T15:29:55;29.30;65.00
3256;DHT22;1640;48.504;9.224;2022-08-01T15:32:23;30.70;66.00
3256;DHT22;1640;48.504;9.224;2022-08-01T15:34:51;31.40;66.60
3256;DHT22;1640;48.504;9.224;2022-08-01T15:37:19;31.40;66.50
3256;DHT22;1640;48.504;9.224;2022-08-01T15:39:46;30.90;67.00
3256;DHT22;1640;48.504;9.224;2022-08-01T15:42:15;30.20;67.30
3256;DHT22;1640;48.504;9.224;2022-08-01T15:44:45;29.60;67.00
3256;DHT22;1640;48.504;9.224;2022-08-01T15:47:12;29.30;66.90
3256;DHT22;1640;48.504;9.224;2022-08-01T15:49:40;29.20;66.90
3256;DHT22;1640;48.504;9.224;2022-08-01T15:52:08;29.50;68.20
3256;DHT22;1640;48.504;9.224;2022-08-01T15:54:36;29.90;67.80
3256;DHT22;1640;48.504;9.224;2022-08-01T15:57:03;30.40;67.50
3256;DHT22;1640;48.504;9.224;2022-08-01T15:59:31;31.00;65.30
3256;DHT22;1640;48.504;9.224;2022-08-01T16:02:00;30.50;65.90
3256;DHT22;1640;48.504;9.224;2022-08-01T16:04:27;29.80;66.60
3256;DHT22;1640;48.504;9.224;2022-08-01T16:06:55;29.50;66.60
3256;DHT22;1640;48.504;9.224;2022-08-01T16:09:22;29.10;67.80
3256;DHT22;1640;48.504;9.224;2022-08-01T16:11:50;29.00;68.00
3256;DHT22;1640;48.504;9.224;2022-08-01T16:14:17;29.30;67.50
3256;DHT22;1640;48.504;9.224;2022-08-01T16:16:46;29.10;67.20
3256;DHT22;1640;48.504;9.224;2022-08-01T16:19:15;29.00;67.80
3256;DHT22;1640;48.504;9.224;2022-08-01T16:21:43;29.00;67.60
3256;DHT22;1640;48.504;9.224;2022-08-01T16:24:10;29.60;67.60